sensor_id;sensor_type;location;lat;lon;timestamp;temperature;humidity
17307;DHT22;8771;48.048;7.682;2023-10-19T00:01:36;13.00;68.10
17307;DHT22;8771;48.048;7.682;2023-10-19T00:06:39;13.00;68.10
17307;DHT22;8771;48.048;7.682;2023-10-19T00:11:41;13.00;68.10
17307;DHT22;8771;48.048;7.682;2023-10-19T00:16:44;13.00;68.10
17307;DHT22;8771;48.048;7.682;2023-10-19T00:21:53;13.00;68.10
17307;DHT22;8771;48.048;7.682;2023-10-19T00:27:02;13.10;68.20
17307;DHT22;8771;48.048;7.682;2023-10-19T00:32:16;13.10;68.10
17307;DHT22;8771;48.048;7.682;2023-10-19T00:37:21;13.20;68.10
17307;DHT22;8771;48.048;7.682;2023-10-19T00:42:27;13.20;68.10
17307;DHT22;8771;48.048;7.682;2023-10-19T00:47:31;13.30;68.20
17307;DHT22;8771;48.048;7.682;2023-10-19T00:52:42;13.30;68.10
17307;DHT22;8771;48.048;7.682;2023-10-19T00:57:50;13.30;68.20
17307;DHT22;8771;48.048;7.682;2023-10-19T01:02:57;13.30;68.20
17307;DHT22;8771;48.048;7.682;2023-10-19T01:08:02;13.40;68.20
17307;DHT22;8771;48.048;7.682;2023-10-19T01:13:14;13.30;68.20
17307;DHT22;8771;48.048;7.682;2023-10-19T01:18:17;13.30;68.20
17307;DHT22;8771;48.048;7.682;2023-10-19T01:23:20;13.30;68.20
17307;DHT22;8771;48.048;7.682;2023-10-19T01:28:27;13.30;68.30
17307;DHT22;8771;48.048;7.682;2023-10-19T01:33:43;13.30;68.50
17307;DHT22;8771;48.048;7.682;2023-10-19T01:38:48;13.30;68.50
17307;DHT22;8771;48.048;7.682;2023-10-19T01:43:51;13.30;68.50
17307;DHT22;8771;48.048;7.682;2023-10-19T01:48:54;13.30;68.50
17307;DHT22;8771;48.048;7.682;2023-10-19T01:53:58;13.20;68.60
17307;DHT22;8771;48.048;7.682;2023-10-19T01:59:02;13.20;68.70
17307;DHT22;8771;48.048;7.682;2023-10-19T02:04:05;13.20;68.70
17307;DHT22;8771;48.048;7.682;2023-10-19T02:09:12;13.10;68.80
17307;DHT22;8771;48.048;7.682;2023-10-19T02:14:22;13.10;68.90
17307;DHT22;8771;48.048;7.682;2023-10-19T02:19:26;13.10;68.90
17307;DHT22;8771;48.048;7.682;2023-10-19T02:24:30;13.10;69.00
17307;DHT22;8771;48.048;7.682;2023-10-19T02:29:32;13.10;69.10
17307;DHT22;8771;48.048;7.682;2023-10-19T02:34:36;13.00;69.10
17307;DHT22;8771;48.048;7.682;2023-10-19T02:39:40;13.00;69.10
17307;DHT22;8771;48.048;7.682;2023-10-19T02:44:44;13.00;69.10
17307;DHT22;8771;48.048;7.682;2023-10-19T02:49:46;13.10;69.10
17307;DHT22;8771;48.048;7.682;2023-10-19T02:54:53;13.30;69.00
17307;DHT22;8771;48.048;7.682;2023-10-19T02:59:57;13.50;68.80
17307;DHT22;8771;48.048;7.682;2023-10-19T03:05:00;13.50;68.80
17307;DHT22;8771;48.048;7.682;2023-10-19T03:10:11;13.60;68.80
17307;DHT22;8771;48.048;7.682;2023-10-19T03:15:24;13.70;68.70
17307;DHT22;8771;48.048;7.682;2023-10-19T03:20:27;13.80;68.70
17307;DHT22;8771;48.048;7.682;2023-10-19T03:25:31;13.90;68.60
17307;DHT22;8771;48.048;7.682;2023-10-19T03:31:17;14.00;68.60
17307;DHT22;8771;48.048;7.682;2023-10-19T03:36:20;14.10;68.60
17307;DHT22;8771;48.048;7.682;2023-10-19T03:41:23;14.20;68.60
17307;DHT22;8771;48.048;7.682;2023-10-19T03:46:27;14.30;68.60
17307;DHT22;8771;48.048;7.682;2023-10-19T03:51:31;14.30;68.50
17307;DHT22;8771;48.048;7.682;2023-10-19T03:56:51;14.30;68.60
17307;DHT22;8771;48.048;7.682;2023-10-19T04:01:53;14.40;68.70
17307;DHT22;8771;48.048;7.682;2023-10-19T04:06:55;14.40;68.80
17307;DHT22;8771;48.048;7.682;2023-10-19T04:12:00;14.40;68.80
17307;DHT22;8771;48.048;7.682;2023-10-19T04:17:03;14.50;68.90
17307;DHT22;8771;48.048;7.682;2023-10-19T04:22:06;14.50;68.90
17307;DHT22;8771;48.048;7.682;2023-10-19T04:27:13;14.60;68.90
17307;DHT22;8771;48.048;7.682;2023-10-19T04:32:15;14.70;69.00
17307;DHT22;8771;48.048;7.682;2023-10-19T04:37:25;14.60;69.00
17307;DHT22;8771;48.048;7.682;2023-10-19T04:42:28;14.60;69.00
17307;DHT22;8771;48.048;7.682;2023-10-19T04:47:31;14.60;69.10
17307;DHT22;8771;48.048;7.682;2023-10-19T04:52:36;14.60;69.10
17307;DHT22;8771;48.048;7.682;2023-10-19T04:57:39;14.60;69.30
17307;DHT22;8771;48.048;7.682;2023-10-19T05:02:41;14.50;69.20
17307;DHT22;8771;48.048;7.682;2023-10-19T05:07:43;14.50;69.30
17307;DHT22;8771;48.048;7.682;2023-10-19T05:12:46;14.50;69.40
17307;DHT22;8771;48.048;7.682;2023-10-19T05:17:48;14.40;69.40
17307;DHT22;8771;48.048;7.682;2023-10-19T05:22:50;14.30;69.50
17307;DHT22;8771;48.048;7.682;2023-10-19T05:27:53;14.30;69.50
17307;DHT22;8771;48.048;7.682;2023-10-19T05:32:55;14.20;69.60
17307;DHT22;8771;48.048;7.682;2023-10-19T05:37:58;14.20;69.60
17307;DHT22;8771;48.048;7.682;2023-10-19T05:43:01;14.20;69.60
17307;DHT22;8771;48.048;7.682;2023-10-19T05:48:04;14.20;69.70
17307;DHT22;8771;48.048;7.682;2023-10-19T05:53:07;14.10;69.70
17307;DHT22;8771;48.048;7.682;2023-10-19T05:58:10;14.10;69.80
17307;DHT22;8771;48.048;7.682;2023-10-19T06:03:12;14.00;69.70
17307;DHT22;8771;48.048;7.682;2023-10-19T06:08:15;14.00;69.80
17307;DHT22;8771;48.048;7.682;2023-10-19T06:13:18;14.00;69.90
17307;DHT22;8771;48.048;7.682;2023-10-19T06:18:20;13.90;69.90
17307;DHT22;8771;48.048;7.682;2023-10-19T06:23:22;13.90;70.00
17307;DHT22;8771;48.048;7.682;2023-10-19T06:28:25;13.80;70.00
17307;DHT22;8771;48.048;7.682;2023-10-19T06:33:27;13.80;70.00
17307;DHT22;8771;48.048;7.682;2023-10-19T06:38:29;13.80;69.80
17307;DHT22;8771;48.048;7.682;2023-10-19T06:43:33;13.80;69.80
17307;DHT22;8771;48.048;7.682;2023-10-19T06:48:36;13.90;69.80
17307;DHT22;8771;48.048;7.682;2023-10-19T06:53:38;13.80;69.80
17307;DHT22;8771;48.048;7.682;2023-10-19T06:58:41;13.90;69.70
17307;DHT22;8771;48.048;7.682;2023-10-19T07:03:43;14.00;69.60
17307;DHT22;8771;48.048;7.682;2023-10-19T07:08:45;14.10;69.60
17307;DHT22;8771;48.048;7.682;2023-10-19T07:13:49;14.10;69.50
17307;DHT22;8771;48.048;7.682;2023-10-19T07:18:51;14.20;69.30
17307;DHT22;8771;48.048;7.682;2023-10-19T07:23:53;14.40;69.30
17307;DHT22;8771;48.048;7.682;2023-10-19T07:28:58;14.50;69.20
17307;DHT22;8771;48.048;7.682;2023-10-19T07:34:00;14.60;69.10
17307;DHT22;8771;48.048;7.682;2023-10-19T07:39:02;14.80;69.00
17307;DHT22;8771;48.048;7.682;2023-10-19T07:44:05;14.90;69.00
17307;DHT22;8771;48.048;7.682;2023-10-19T07:49:07;15.00;68.80
17307;DHT22;8771;48.048;7.682;2023-10-19T07:54:09;15.20;68.70
17307;DHT22;8771;48.048;7.682;2023-10-19T07:59:13;15.30;68.70
17307;DHT22;8771;48.048;7.682;2023-10-19T08:04:15;15.40;68.70
17307;DHT22;8771;48.048;7.682;2023-10-19T08:09:17;15.50;68.70
17307;DHT22;8771;48.048;7.682;2023-10-19T08:14:24;15.50;69.40
17307;DHT22;8771;48.048;7.682;2023-10-19T08:19:27;15.60;68.70
17307;DHT22;8771;48.048;7.682;2023-10-19T08:24:33;15.60;68.70
17307;DHT22;8771;48.048;7.682;2023-10-19T08:29:37;15.70;68.80
17307;DHT22;8771;48.048;7.682;2023-10-19T08:34:39;15.70;68.90
17307;DHT22;8771;48.048;7.682;2023-10-19T08:39:42;15.70;68.90
17307;DHT22;8771;48.048;7.682;2023-10-19T08:44:45;15.70;68.90
17307;DHT22;8771;48.048;7.682;2023-10-19T08:49:47;15.70;69.00
17307;DHT22;8771;48.048;7.682;2023-10-19T08:54:49;15.70;69.00
17307;DHT22;8771;48.048;7.682;2023-10-19T08:59:52;15.70;69.20
17307;DHT22;8771;48.048;7.682;2023-10-19T09:04:57;15.70;69.20
17307;DHT22;8771;48.048;7.682;2023-10-19T09:10:00;15.70;69.30
17307;DHT22;8771;48.048;7.682;2023-10-19T09:15:06;15.70;69.30
17307;DHT22;8771;48.048;7.682;2023-10-19T09:20:22;15.80;69.40
17307;DHT22;8771;48.048;7.682;2023-10-19T09:25:28;15.80;69.30
17307;DHT22;8771;48.048;7.682;2023-10-19T09:30:32;15.80;69.40
17307;DHT22;8771;48.048;7.682;2023-10-19T09:35:35;15.80;69.50
17307;DHT22;8771;48.048;7.682;2023-10-19T09:40:39;15.70;69.40
17307;DHT22;8771;48.048;7.682;2023-10-19T09:45:46;15.70;69.60
17307;DHT22;8771;48.048;7.682;2023-10-19T09:50:53;15.70;69.70
17307;DHT22;8771;48.048;7.682;2023-10-19T09:55:58;15.70;69.80
17307;DHT22;8771;48.048;7.682;2023-10-19T10:01:02;15.60;69.80
17307;DHT22;8771;48.048;7.682;2023-10-19T10:06:08;15.70;69.90
17307;DHT22;8771;48.048;7.682;2023-10-19T10:11:20;15.70;69.90
17307;DHT22;8771;48.048;7.682;2023-10-19T10:16:26;15.70;69.90
17307;DHT22;8771;48.048;7.682;2023-10-19T10:21:28;15.80;70.00
17307;DHT22;8771;48.048;7.682;2023-10-19T10:27:00;15.80;69.80
17307;DHT22;8771;48.048;7.682;2023-10-19T10:32:05;15.90;69.70
17307;DHT22;8771;48.048;7.682;2023-10-19T10:37:11;16.10;69.60
17307;DHT22;8771;48.048;7.682;2023-10-19T10:42:14;16.20;69.50
17307;DHT22;8771;48.048;7.682;2023-10-19T10:47:20;16.30;69.30
17307;DHT22;8771;48.048;7.682;2023-10-19T10:52:27;16.50;69.30
17307;DHT22;8771;48.048;7.682;2023-10-19T10:57:33;16.60;69.30
17307;DHT22;8771;48.048;7.682;2023-10-19T11:02:37;16.70;69.30
17307;DHT22;8771;48.048;7.682;2023-10-19T11:08:05;16.80;69.30
17307;DHT22;8771;48.048;7.682;2023-10-19T11:13:09;16.90;69.20
17307;DHT22;8771;48.048;7.682;2023-10-19T11:18:28;17.00;69.10
17307;DHT22;8771;48.048;7.682;2023-10-19T11:23:43;17.10;69.10
17307;DHT22;8771;48.048;7.682;2023-10-19T11:28:46;17.20;69.10
17307;DHT22;8771;48.048;7.682;2023-10-19T11:33:53;17.20;69.10
17307;DHT22;8771;48.048;7.682;2023-10-19T11:38:56;17.30;69.00
17307;DHT22;8771;48.048;7.682;2023-10-19T11:43:58;17.40;69.10
17307;DHT22;8771;48.048;7.682;2023-10-19T11:49:02;17.40;69.20
17307;DHT22;8771;48.048;7.682;2023-10-19T11:54:04;17.40;69.30
17307;DHT22;8771;48.048;7.682;2023-10-19T11:59:07;17.50;69.30
17307;DHT22;8771;48.048;7.682;2023-10-19T12:04:10;17.50;69.40
17307;DHT22;8771;48.048;7.682;2023-10-19T12:09:12;17.50;69.40
17307;DHT22;8771;48.048;7.682;2023-10-19T12:14:16;17.50;69.40
17307;DHT22;8771;48.048;7.682;2023-10-19T12:19:19;17.60;69.50
17307;DHT22;8771;48.048;7.682;2023-10-19T12:24:21;17.60;69.50
17307;DHT22;8771;48.048;7.682;2023-10-19T12:29:23;17.60;69.60
17307;DHT22;8771;48.048;7.682;2023-10-19T12:34:27;17.60;69.60
17307;DHT22;8771;48.048;7.682;2023-10-19T12:39:30;17.60;69.60
17307;DHT22;8771;48.048;7.682;2023-10-19T12:44:43;17.60;69.70
17307;DHT22;8771;48.048;7.682;2023-10-19T12:49:46;17.60;69.80
17307;DHT22;8771;48.048;7.682;2023-10-19T12:54:48;17.50;70.00
17307;DHT22;8771;48.048;7.682;2023-10-19T12:59:52;17.50;70.10
17307;DHT22;8771;48.048;7.682;2023-10-19T13:04:55;17.50;70.10
17307;DHT22;8771;48.048;7.682;2023-10-19T13:09:59;17.50;70.10
17307;DHT22;8771;48.048;7.682;2023-10-19T13:15:03;17.60;70.10
17307;DHT22;8771;48.048;7.682;2023-10-19T13:20:09;17.70;70.10
17307;DHT22;8771;48.048;7.682;2023-10-19T13:25:18;17.70;70.00
17307;DHT22;8771;48.048;7.682;2023-10-19T13:30:29;17.70;70.00
17307;DHT22;8771;48.048;7.682;2023-10-19T13:35:33;17.80;70.10
17307;DHT22;8771;48.048;7.682;2023-10-19T13:40:35;17.80;70.10
17307;DHT22;8771;48.048;7.682;2023-10-19T13:45:38;17.80;70.10
17307;DHT22;8771;48.048;7.682;2023-10-19T13:50:44;17.90;70.10
17307;DHT22;8771;48.048;7.682;2023-10-19T13:55:46;17.90;70.10
17307;DHT22;8771;48.048;7.682;2023-10-19T14:00:48;17.90;70.10
17307;DHT22;8771;48.048;7.682;2023-10-19T14:05:52;17.90;70.20
17307;DHT22;8771;48.048;7.682;2023-10-19T14:11:01;17.90;70.10
17307;DHT22;8771;48.048;7.682;2023-10-19T14:16:05;17.90;70.20
17307;DHT22;8771;48.048;7.682;2023-10-19T14:21:14;17.90;70.10
17307;DHT22;8771;48.048;7.682;2023-10-19T14:26:16;17.90;70.10
17307;DHT22;8771;48.048;7.682;2023-10-19T14:31:18;17.90;70.20
17307;DHT22;8771;48.048;7.682;2023-10-19T14:36:22;17.90;70.30
17307;DHT22;8771;48.048;7.682;2023-10-19T14:41:24;17.90;70.40
17307;DHT22;8771;48.048;7.682;2023-10-19T14:46:26;17.90;70.40
17307;DHT22;8771;48.048;7.682;2023-10-19T14:51:31;17.90;70.40
17307;DHT22;8771;48.048;7.682;2023-10-19T14:56:33;17.90;70.50
17307;DHT22;8771;48.048;7.682;2023-10-19T15:01:35;17.80;70.60
17307;DHT22;8771;48.048;7.682;2023-10-19T15:06:38;17.80;70.70
17307;DHT22;8771;48.048;7.682;2023-10-19T15:11:40;17.80;70.80
17307;DHT22;8771;48.048;7.682;2023-10-19T15:16:42;17.80;70.80
17307;DHT22;8771;48.048;7.682;2023-10-19T15:21:47;17.70;70.80
17307;DHT22;8771;48.048;7.682;2023-10-19T15:26:49;17.70;70.90
17307;DHT22;8771;48.048;7.682;2023-10-19T15:31:51;17.70;70.90
17307;DHT22;8771;48.048;7.682;2023-10-19T15:36:54;17.70;70.90
17307;DHT22;8771;48.048;7.682;2023-10-19T15:41:57;17.60;71.00
17307;DHT22;8771;48.048;7.682;2023-10-19T15:46:58;17.60;71.20
17307;DHT22;8771;48.048;7.682;2023-10-19T15:52:02;17.60;71.30
17307;DHT22;8771;48.048;7.682;2023-10-19T15:57:04;17.50;71.20
17307;DHT22;8771;48.048;7.682;2023-10-19T16:02:06;17.50;71.30
17307;DHT22;8771;48.048;7.682;2023-10-19T16:07:10;17.50;71.30
17307;DHT22;8771;48.048;7.682;2023-10-19T16:12:12;17.50;71.50
17307;DHT22;8771;48.048;7.682;2023-10-19T16:17:17;17.40;71.40
17307;DHT22;8771;48.048;7.682;2023-10-19T16:22:21;17.40;71.40
17307;DHT22;8771;48.048;7.682;2023-10-19T16:27:23;17.40;72.20
17307;DHT22;8771;48.048;7.682;2023-10-19T16:32:27;17.40;71.60
17307;DHT22;8771;48.048;7.682;2023-10-19T16:37:32;17.30;71.60
17307;DHT22;8771;48.048;7.682;2023-10-19T16:42:34;17.30;71.60
17307;DHT22;8771;48.048;7.682;2023-10-19T16:47:37;17.30;71.60
17307;DHT22;8771;48.048;7.682;2023-10-19T16:52:40;17.30;71.60
17307;DHT22;8771;48.048;7.682;2023-10-19T16:57:42;17.20;71.60
17307;DHT22;8771;48.048;7.682;2023-10-19T17:02:44;17.20;71.70
17307;DHT22;8771;48.048;7.682;2023-10-19T17:07:47;17.10;71.80
17307;DHT22;8771;48.048;7.682;2023-10-19T17:12:49;17.10;72.00
17307;DHT22;8771;48.048;7.682;2023-10-19T17:17:51;17.10;72.00
17307;DHT22;8771;48.048;7.682;2023-10-19T17:22:54;17.00;71.90
17307;DHT22;8771;48.048;7.682;2023-10-19T17:27:56;17.00;72.00
17307;DHT22;8771;48.048;7.682;2023-10-19T17:32:58;17.00;72.00
17307;DHT22;8771;48.048;7.682;2023-10-19T17:38:01;17.00;72.10
17307;DHT22;8771;48.048;7.682;2023-10-19T17:43:03;16.90;72.00
17307;DHT22;8771;48.048;7.682;2023-10-19T17:48:07;16.90;72.20
17307;DHT22;8771;48.048;7.682;2023-10-19T17:53:11;16.90;72.20
17307;DHT22;8771;48.048;7.682;2023-10-19T17:58:13;16.90;72.20
17307;DHT22;8771;48.048;7.682;2023-10-19T18:03:15;16.90;72.20
17307;DHT22;8771;48.048;7.682;2023-10-19T18:08:21;16.80;72.20
17307;DHT22;8771;48.048;7.682;2023-10-19T18:13:23;16.70;73.00
17307;DHT22;8771;48.048;7.682;2023-10-19T18:18:25;16.70;72.30
17307;DHT22;8771;48.048;7.682;2023-10-19T18:23:31;16.80;72.30
17307;DHT22;8771;48.048;7.682;2023-10-19T18:28:33;16.70;72.30
17307;DHT22;8771;48.048;7.682;2023-10-19T18:33:34;16.70;72.30
17307;DHT22;8771;48.048;7.682;2023-10-19T18:38:38;16.70;72.30
17307;DHT22;8771;48.048;7.682;2023-10-19T18:43:42;16.70;72.40
17307;DHT22;8771;48.048;7.682;2023-10-19T18:48:44;16.60;72.30
17307;DHT22;8771;48.048;7.682;2023-10-19T18:53:47;16.60;72.50
17307;DHT22;8771;48.048;7.682;2023-10-19T18:58:49;16.50;72.60
17307;DHT22;8771;48.048;7.682;2023-10-19T19:03:51;16.40;72.70
17307;DHT22;8771;48.048;7.682;2023-10-19T19:08:54;16.40;72.80
17307;DHT22;8771;48.048;7.682;2023-10-19T19:13:56;16.40;72.70
17307;DHT22;8771;48.048;7.682;2023-10-19T19:18:58;16.50;72.70
17307;DHT22;8771;48.048;7.682;2023-10-19T19:24:01;16.50;72.60
17307;DHT22;8771;48.048;7.682;2023-10-19T19:29:04;16.50;72.60
17307;DHT22;8771;48.048;7.682;2023-10-19T19:34:06;16.50;72.60
17307;DHT22;8771;48.048;7.682;2023-10-19T19:39:09;16.50;72.60
17307;DHT22;8771;48.048;7.682;2023-10-19T19:44:17;16.50;72.60
17307;DHT22;8771;48.048;7.682;2023-10-19T19:49:22;16.50;72.70
17307;DHT22;8771;48.048;7.682;2023-10-19T19:54:26;16.40;72.60
17307;DHT22;8771;48.048;7.682;2023-10-19T19:59:28;16.40;72.70
17307;DHT22;8771;48.048;7.682;2023-10-19T20:04:30;16.40;72.70
17307;DHT22;8771;48.048;7.682;2023-10-19T20:09:33;16.40;72.70
17307;DHT22;8771;48.048;7.682;2023-10-19T20:14:36;16.40;73.60
17307;DHT22;8771;48.048;7.682;2023-10-19T20:19:39;16.30;72.90
17307;DHT22;8771;48.048;7.682;2023-10-19T20:24:43;16.20;72.90
17307;DHT22;8771;48.048;7.682;2023-10-19T20:29:45;16.20;73.00
17307;DHT22;8771;48.048;7.682;2023-10-19T20:34:47;16.20;73.10
17307;DHT22;8771;48.048;7.682;2023-10-19T20:39:50;16.10;73.20
17307;DHT22;8771;48.048;7.682;2023-10-19T20:44:53;16.10;73.30
17307;DHT22;8771;48.048;7.682;2023-10-19T20:49:55;16.00;73.30
17307;DHT22;8771;48.048;7.682;2023-10-19T20:54:59;16.00;73.30
17307;DHT22;8771;48.048;7.682;2023-10-19T21:00:01;16.00;73.30
17307;DHT22;8771;48.048;7.682;2023-10-19T21:05:03;16.00;73.30
17307;DHT22;8771;48.048;7.682;2023-10-19T21:10:08;16.00;73.30
17307;DHT22;8771;48.048;7.682;2023-10-19T21:15:13;16.00;73.20
17307;DHT22;8771;48.048;7.682;2023-10-19T21:20:18;16.10;73.20
17307;DHT22;8771;48.048;7.682;2023-10-19T21:25:22;16.10;73.20
17307;DHT22;8771;48.048;7.682;2023-10-19T21:30:24;16.10;73.20
17307;DHT22;8771;48.048;7.682;2023-10-19T21:35:26;16.10;73.20
17307;DHT22;8771;48.048;7.682;2023-10-19T21:40:29;16.10;73.20
17307;DHT22;8771;48.048;7.682;2023-10-19T21:45:31;16.00;73.20
17307;DHT22;8771;48.048;7.682;2023-10-19T21:50:34;16.00;73.20
17307;DHT22;8771;48.048;7.682;2023-10-19T21:55:37;16.00;73.20
17307;DHT22;8771;48.048;7.682;2023-10-19T22:00:39;16.00;74.00
17307;DHT22;8771;48.048;7.682;2023-10-19T22:05:44;16.00;73.30
17307;DHT22;8771;48.048;7.682;2023-10-19T22:10:47;16.00;73.40
17307;DHT22;8771;48.048;7.682;2023-10-19T22:15:49;16.00;73.30
17307;DHT22;8771;48.048;7.682;2023-10-19T22:20:52;16.00;73.20
17307;DHT22;8771;48.048;7.682;2023-10-19T22:25:57;15.90;73.20
17307;DHT22;8771;48.048;7.682;2023-10-19T22:30:59;15.90;73.20
17307;DHT22;8771;48.048;7.682;2023-10-19T22:36:01;15.90;73.30
17307;DHT22;8771;48.048;7.682;2023-10-19T22:41:04;15.90;73.30
17307;DHT22;8771;48.048;7.682;2023-10-19T22:46:06;16.00;73.30
17307;DHT22;8771;48.048;7.682;2023-10-19T22:51:08;16.00;73.30
17307;DHT22;8771;48.048;7.682;2023-10-19T22:56:12;16.00;73.30
17307;DHT22;8771;48.048;7.682;2023-10-19T23:01:14;16.00;73.30
17307;DHT22;8771;48.048;7.682;2023-10-19T23:06:17;16.00;73.40
17307;DHT22;8771;48.048;7.682;2023-10-19T23:11:21;16.00;73.50
17307;DHT22;8771;48.048;7.682;2023-10-19T23:16:24;15.90;73.40
17307;DHT22;8771;48.048;7.682;2023-10-19T23:21:30;15.90;73.50
17307;DHT22;8771;48.048;7.682;2023-10-19T23:26:34;15.90;73.60
17307;DHT22;8771;48.048;7.682;2023-10-19T23:31:36;15.90;73.60
17307;DHT22;8771;48.048;7.682;2023-10-19T23:36:39;15.90;73.60
17307;DHT22;8771;48.048;7.682;2023-10-19T23:41:43;15.90;74.30
17307;DHT22;8771;48.048;7.682;2023-10-19T23:46:44;15.90;73.70
17307;DHT22;8771;48.048;7.682;2023-10-19T23:51:46;15.90;73.70
17307;DHT22;8771;48.048;7.682;2023-10-19T23:56:50;15.80;73.60
